TAF and METAR

Decoding for American and Canadian METARs and TAFs is not fully implemented.

Could not understand the following METAR

KDEN 292053Z VRB05KT 10SM FEW090 FEW140 FEW220 30/08 A3014 RMK AO2 SLP128 T03000078 56016

TAF for Denver International Airport

KDEN 292101Z 2921/3024 11006KT P6SM FEW090 FEW220 FM292300 13008KT P6SM VCTS SCT090CB BKN140 TEMPO 2923/3003 VRB18G28KT FM300300 19012KT P6SM FEW090 SCT140 BKN200 FM300700 21012KT P6SM SCT140 FM301400 03010KT P6SM SCT140 FM301900 05010KT P6SM SCT080 SCT200 PROB30 3021/3024 4SM TSRA BKN070CB
Report created 29. mai 23:01

between 29. mai 23:00 - 30. mai 02:00

wind 6 knots from ESE (110°)